Time;durP1;ratioP1;P1;durP2;ratioP2;P2;SDS_P1;SDS_P2;PMS_P1;PMS_P2;Temp;Humidity;BMP_temperature;BMP_pressure;BME280_temperature;BME280_humidity;BME280_pressure;Samples;Min_cycle;Max_cycle;Signal;HPM_P1;HPM_P2
2022/01/02 00:01:13;;;;;;;1.30;1.20;;;4.60;98.00;;;;;;5033512;28;20466;-66
2022/01/02 00:03:43;;;;;;;1.33;1.30;;;4.70;98.00;;;;;;5033246;28;20497;-67
2022/01/02 00:06:13;;;;;;;1.80;1.70;;;4.80;98.00;;;;;;5033354;28;20959;-66
2022/01/02 00:08:42;;;;;;;3.00;2.00;;;5.00;98.00;;;;;;5033209;28;20482;-67
2022/01/02 00:11:17;;;;;;;2.87;1.43;;;5.10;98.00;;;;;;5033271;28;20457;-66
2022/01/02 00:13:48;;;;;;;2.03;1.90;;;5.00;98.00;;;;;;5031920;28;20548;-66
2022/01/02 00:16:18;;;;;;;1.57;1.40;;;5.00;98.00;;;;;;5033211;28;20926;-67
2022/01/02 00:18:52;;;;;;;1.93;1.30;;;5.00;98.00;;;;;;5031560;28;20885;-66
2022/01/02 00:21:21;;;;;;;3.43;1.93;;;5.00;98.00;;;;;;5033127;28;20448;-66
2022/01/02 00:23:58;;;;;;;1.20;1.20;;;4.90;98.00;;;;;;5032877;28;20449;-67
2022/01/02 00:26:35;;;;;;;1.30;1.20;;;4.90;98.00;;;;;;5032690;28;20818;-66
2022/01/02 00:29:04;;;;;;;1.30;1.10;;;4.90;98.00;;;;;;5032974;28;20881;-66
2022/01/02 00:31:32;;;;;;;1.83;1.47;;;5.00;98.00;;;;;;5032882;28;20469;-66
2022/01/02 00:34:00;;;;;;;1.67;1.10;;;5.00;98.00;;;;;;5032698;28;20942;-66
2022/01/02 00:36:27;;;;;;;1.47;1.37;;;4.90;98.00;;;;;;5032829;28;20496;-66
2022/01/02 00:38:54;;;;;;;1.30;1.10;;;4.90;98.00;;;;;;5032463;28;20463;-66
2022/01/02 00:41:26;;;;;;;1.80;1.63;;;4.70;98.00;;;;;;5031729;28;20494;-67
2022/01/02 00:43:59;;;;;;;5.00;1.40;;;4.60;98.00;;;;;;5032774;28;20482;-66
2022/01/02 00:46:28;;;;;;;2.53;1.20;;;4.60;98.00;;;;;;5032610;28;20820;-66
2022/01/02 00:49:00;;;;;;;1.20;1.00;;;4.60;98.00;;;;;;5032541;28;20461;-67
2022/01/02 00:51:34;;;;;;;1.30;1.10;;;4.50;98.00;;;;;;5032673;28;20824;-66
2022/01/02 00:54:03;;;;;;;3.13;1.63;;;4.50;98.00;;;;;;5032687;28;20500;-67
2022/01/02 00:56:32;;;;;;;5.30;1.83;;;4.60;98.00;;;;;;5032638;28;20488;-66
2022/01/02 00:59:04;;;;;;;1.40;1.20;;;4.40;98.00;;;;;;5032537;28;20534;-66
2022/01/02 01:01:35;;;;;;;2.07;1.53;;;4.60;98.00;;;;;;5032506;28;20537;-67
2022/01/02 01:04:05;;;;;;;1.97;1.40;;;4.60;98.00;;;;;;5032320;28;20447;-67
2022/01/02 01:06:33;;;;;;;1.67;1.47;;;4.60;98.00;;;;;;5032316;28;20459;-66
2022/01/02 01:09:05;;;;;;;1.87;1.50;;;4.40;98.00;;;;;;5032158;28;20453;-66
2022/01/02 01:11:32;;;;;;;1.40;1.20;;;4.40;98.00;;;;;;5031001;28;20889;-66
2022/01/02 01:14:03;;;;;;;1.20;1.10;;;4.50;98.00;;;;;;5032074;28;20888;-67
2022/01/02 01:16:30;;;;;;;1.60;1.20;;;4.60;98.00;;;;;;5031943;28;20447;-66
2022/01/02 01:18:58;;;;;;;1.27;1.23;;;4.70;98.00;;;;;;5031917;28;20455;-67
2022/01/02 01:21:26;;;;;;;1.20;1.10;;;4.60;98.00;;;;;;5030499;28;20454;-66
2022/01/02 01:23:53;;;;;;;2.90;2.53;;;4.50;98.00;;;;;;5031878;28;20467;-66
2022/01/02 01:26:20;;;;;;;2.13;1.77;;;4.60;98.00;;;;;;5031945;28;20458;-67
2022/01/02 01:28:47;;;;;;;1.67;1.63;;;4.60;98.00;;;;;;5031698;28;21031;-66
2022/01/02 01:31:16;;;;;;;1.93;1.30;;;4.80;98.00;;;;;;5031780;28;20867;-66
2022/01/02 01:33:43;;;;;;;1.20;1.00;;;4.70;98.00;;;;;;5031630;28;20502;-66
2022/01/02 01:36:10;;;;;;;1.37;1.23;;;4.70;98.00;;;;;;5031635;28;20897;-66
2022/01/02 01:38:37;;;;;;;3.30;1.93;;;4.70;98.00;;;;;;5031656;28;20459;-66
2022/01/02 01:41:10;;;;;;;1.20;1.20;;;4.50;98.00;;;;;;5030539;28;20549;-66
2022/01/02 01:43:40;;;;;;;1.43;1.40;;;4.40;98.00;;;;;;5031543;28;20867;-66
2022/01/02 01:46:11;;;;;;;1.53;1.27;;;4.30;98.00;;;;;;5031953;28;20494;-67
2022/01/02 01:48:39;;;;;;;1.20;1.00;;;4.30;98.00;;;;;;5032384;28;20483;-66
2022/01/02 01:51:06;;;;;;;1.50;1.20;;;4.50;98.00;;;;;;5032143;28;20460;-66
2022/01/02 01:53:33;;;;;;;2.37;2.17;;;4.30;98.00;;;;;;5031999;28;20452;-67
2022/01/02 01:56:00;;;;;;;2.03;1.13;;;4.10;98.00;;;;;;5031529;28;20925;-66
2022/01/02 01:58:27;;;;;;;2.47;1.37;;;4.30;98.00;;;;;;5031426;28;20491;-66
2022/01/02 02:00:54;;;;;;;2.27;1.37;;;4.40;98.00;;;;;;5031281;28;20574;-66
2022/01/02 02:03:21;;;;;;;2.80;1.60;;;4.40;98.00;;;;;;5031349;28;20494;-66
2022/01/02 02:05:49;;;;;;;2.17;1.30;;;4.50;98.00;;;;;;5031151;28;20458;-66
2022/01/02 02:08:16;;;;;;;1.20;1.20;;;4.50;98.00;;;;;;5031260;28;20518;-66
2022/01/02 02:10:46;;;;;;;2.30;1.70;;;4.50;98.00;;;;;;5031145;28;20454;-66
2022/01/02 02:13:13;;;;;;;1.60;1.40;;;4.50;98.00;;;;;;5031350;28;20493;-66
2022/01/02 02:15:40;;;;;;;1.20;1.20;;;4.50;98.00;;;;;;5029860;28;20665;-66
2022/01/02 02:18:09;;;;;;;1.70;1.57;;;4.30;98.00;;;;;;5031083;28;20505;-66
2022/01/02 02:20:37;;;;;;;1.20;1.00;;;4.20;98.00;;;;;;5029853;28;20890;-66
2022/01/02 02:23:05;;;;;;;1.20;1.10;;;4.10;98.00;;;;;;5031191;28;20552;-66
2022/01/02 02:25:35;;;;;;;1.20;1.10;;;3.90;98.00;;;;;;5031287;28;20500;-66
2022/01/02 02:28:04;;;;;;;1.77;1.20;;;4.00;98.00;;;;;;5031200;28;20870;-67
2022/01/02 02:30:34;;;;;;;1.33;1.20;;;4.00;98.00;;;;;;5031014;28;20454;-66
2022/01/02 02:33:03;;;;;;;1.70;1.20;;;3.90;98.00;;;;;;5030954;28;20494;-66
2022/01/02 02:35:32;;;;;;;1.50;1.20;;;3.70;98.00;;;;;;5030898;28;20547;-66
2022/01/02 02:38:01;;;;;;;1.40;1.40;;;3.50;98.00;;;;;;5030698;28;20958;-66
2022/01/02 02:40:30;;;;;;;1.80;1.60;;;3.30;98.00;;;;;;5030692;28;20482;-66
2022/01/02 02:43:02;;;;;;;1.23;1.10;;;3.40;98.00;;;;;;5029489;28;20508;-67
2022/01/02 02:51:05;;;;;;;1.20;1.00;;;3.70;98.00;;;;;;5029885;28;20884;-66
2022/01/02 02:53:35;;;;;;;1.20;1.17;;;3.80;98.00;;;;;;5030589;28;20454;-66
2022/01/02 02:56:12;;;;;;;1.30;1.27;;;3.80;98.00;;;;;;5030739;28;20499;-66
2022/01/02 02:58:41;;;;;;;1.40;1.20;;;3.90;98.00;;;;;;5030342;28;20528;-66
2022/01/02 03:01:12;;;;;;;1.87;1.17;;;4.10;98.00;;;;;;5030567;28;20483;-66
2022/01/02 03:03:39;;;;;;;1.20;1.20;;;4.00;98.00;;;;;;5030565;28;20648;-65
2022/01/02 03:06:07;;;;;;;1.67;1.33;;;3.90;98.00;;;;;;5033423;28;20497;-67
2022/01/02 03:08:37;;;;;;;1.20;1.10;;;3.70;98.00;;;;;;5034385;28;20505;-66
2022/01/02 03:11:08;;;;;;;2.23;1.30;;;3.60;98.00;;;;;;5034338;28;20489;-66
2022/01/02 03:13:35;;;;;;;1.50;1.10;;;3.40;98.00;;;;;;5034262;28;20461;-65
2022/01/02 03:16:02;;;;;;;1.30;1.30;;;3.30;98.00;;;;;;5034268;28;20515;-66
2022/01/02 03:18:29;;;;;;;1.20;1.00;;;3.20;98.00;;;;;;5034295;28;20490;-66
2022/01/02 03:20:56;;;;;;;1.97;1.33;;;3.40;98.00;;;;;;5034029;28;20522;-67
2022/01/02 03:23:24;;;;;;;1.20;1.10;;;3.60;98.00;;;;;;5034137;28;20538;-65
2022/01/02 03:25:53;;;;;;;1.30;1.13;;;3.60;98.00;;;;;;5032893;28;20467;-66
2022/01/02 03:28:24;;;;;;;1.23;1.07;;;3.50;98.00;;;;;;5034106;28;20903;-66
2022/01/02 03:30:51;;;;;;;1.30;1.30;;;3.40;98.00;;;;;;5016707;28;20831;-66
2022/01/02 03:33:18;;;;;;;2.07;1.50;;;3.30;98.00;;;;;;5032887;28;20896;-66
2022/01/02 03:35:45;;;;;;;2.00;1.93;;;3.30;98.00;;;;;;5034108;28;20541;-66
2022/01/02 03:38:12;;;;;;;1.50;1.30;;;3.40;98.00;;;;;;5033982;28;20530;-66
2022/01/02 03:40:40;;;;;;;2.93;1.50;;;3.40;98.00;;;;;;5033833;28;21025;-66
2022/01/02 03:43:08;;;;;;;1.40;1.27;;;3.40;98.00;;;;;;5032572;28;20497;-65
2022/01/02 03:45:35;;;;;;;1.60;1.30;;;3.20;98.00;;;;;;5033993;28;20486;-66
2022/01/02 03:48:02;;;;;;;1.20;1.10;;;3.40;98.00;;;;;;5032766;28;20537;-66
2022/01/02 03:50:31;;;;;;;1.23;1.20;;;3.40;98.00;;;;;;5033966;28;20473;-66
2022/01/02 03:52:58;;;;;;;1.57;1.40;;;3.40;98.00;;;;;;5032413;28;20512;-66
2022/01/02 03:55:25;;;;;;;1.27;1.20;;;3.40;98.00;;;;;;5033785;28;20478;-66
2022/01/02 03:57:52;;;;;;;1.20;1.13;;;3.50;98.00;;;;;;5033579;28;20541;-66
2022/01/02 04:00:21;;;;;;;1.80;1.50;;;3.60;98.00;;;;;;5033426;28;20521;-66
2022/01/02 04:02:48;;;;;;;1.77;1.10;;;3.60;98.00;;;;;;5033507;28;20953;-66
2022/01/02 04:05:16;;;;;;;1.30;1.23;;;3.60;98.00;;;;;;5033378;28;20536;-66
2022/01/02 04:07:44;;;;;;;2.13;1.33;;;3.40;98.00;;;;;;5032068;28;20451;-66
2022/01/02 04:10:16;;;;;;;1.70;1.40;;;3.30;98.00;;;;;;5033343;28;20446;-66
2022/01/02 04:12:43;;;;;;;1.73;1.50;;;3.30;98.00;;;;;;5033256;28;20988;-66
2022/01/02 04:15:11;;;;;;;1.30;1.30;;;3.40;98.00;;;;;;5033195;28;20486;-65
2022/01/02 04:17:42;;;;;;;2.73;1.10;;;3.40;98.00;;;;;;5031984;28;20486;-66
2022/01/02 04:20:11;;;;;;;2.20;1.33;;;3.40;98.00;;;;;;5032909;28;20526;-67
2022/01/02 04:22:38;;;;;;;1.30;1.23;;;3.30;98.00;;;;;;5033073;28;20892;-66
2022/01/02 04:25:06;;;;;;;1.57;1.20;;;3.40;98.00;;;;;;5032982;28;20478;-66
2022/01/02 04:27:33;;;;;;;1.20;1.00;;;3.40;98.00;;;;;;5033012;28;20451;-66
2022/01/02 04:30:00;;;;;;;1.20;1.00;;;3.20;98.00;;;;;;5032857;28;20550;-66
2022/01/02 04:32:28;;;;;;;1.20;1.00;;;3.20;98.00;;;;;;5032973;28;20489;-66
2022/01/02 04:34:56;;;;;;;1.20;1.00;;;3.20;98.00;;;;;;5031655;28;20501;-66
2022/01/02 04:37:24;;;;;;;2.17;1.63;;;3.30;98.00;;;;;;5032884;28;21004;-66
2022/01/02 04:39:51;;;;;;;1.30;1.13;;;3.30;98.00;;;;;;5032632;28;20525;-66
2022/01/02 04:42:18;;;;;;;1.30;1.20;;;3.30;98.00;;;;;;5032553;28;20494;-66
2022/01/02 04:44:45;;;;;;;1.77;1.37;;;3.30;98.00;;;;;;5032616;28;20459;-66
2022/01/02 04:47:12;;;;;;;1.20;1.10;;;3.10;98.00;;;;;;5031520;28;20541;-65
2022/01/02 04:49:39;;;;;;;1.30;1.30;;;3.00;98.00;;;;;;5032556;28;20541;-67
2022/01/02 04:52:07;;;;;;;4.40;1.63;;;2.90;98.00;;;;;;5032388;28;20885;-66
2022/01/02 04:54:34;;;;;;;1.90;1.20;;;2.90;98.00;;;;;;5032390;28;20462;-65
2022/01/02 04:57:01;;;;;;;1.67;1.50;;;3.00;98.00;;;;;;5032389;28;20894;-66
2022/01/02 04:59:29;;;;;;;1.20;1.10;;;2.90;98.00;;;;;;5032456;28;20502;-66
2022/01/02 05:01:57;;;;;;;1.30;1.20;;;2.90;98.00;;;;;;5030495;28;20560;-65
2022/01/02 05:04:24;;;;;;;1.40;1.30;;;2.80;98.00;;;;;;5032375;28;20487;-66
2022/01/02 05:06:51;;;;;;;1.30;1.27;;;2.70;98.00;;;;;;5032344;28;20540;-66
2022/01/02 05:09:19;;;;;;;1.20;1.00;;;2.70;98.00;;;;;;5032130;28;20534;-66
2022/01/02 05:11:46;;;;;;;1.57;1.43;;;2.80;98.00;;;;;;5032354;28;20459;-66
2022/01/02 05:14:13;;;;;;;1.57;1.40;;;2.90;98.00;;;;;;5032473;28;20875;-66
2022/01/02 05:16:40;;;;;;;1.20;1.13;;;3.00;98.00;;;;;;5032150;28;20498;-65
2022/01/02 05:19:07;;;;;;;1.20;1.03;;;3.10;98.00;;;;;;5032197;28;20486;-65
2022/01/02 05:21:34;;;;;;;2.13;1.67;;;3.20;98.00;;;;;;5031983;28;20565;-66
2022/01/02 05:24:01;;;;;;;1.30;1.07;;;3.20;98.00;;;;;;5031830;28;20887;-65
2022/01/02 05:26:31;;;;;;;2.23;1.60;;;3.30;98.00;;;;;;5031903;28;20961;-65
2022/01/02 05:28:58;;;;;;;1.20;1.10;;;3.20;98.00;;;;;;5031306;28;20459;-66
2022/01/02 05:31:25;;;;;;;2.03;1.53;;;3.20;98.00;;;;;;5031829;28;20482;-66
2022/01/02 05:33:52;;;;;;;1.30;1.10;;;3.40;98.00;;;;;;5031798;28;20494;-66
2022/01/02 05:36:18;;;;;;;3.63;1.67;;;3.50;98.00;;;;;;5031696;28;20548;-66
2022/01/02 05:38:45;;;;;;;1.40;1.13;;;3.40;98.00;;;;;;5031312;28;20969;-66
2022/01/02 05:41:12;;;;;;;1.30;1.20;;;3.40;98.00;;;;;;5031560;28;20519;-66
2022/01/02 05:43:41;;;;;;;1.20;1.10;;;3.40;98.00;;;;;;5031508;28;20981;-66
2022/01/02 05:46:08;;;;;;;1.47;1.13;;;3.40;98.00;;;;;;5031531;28;20455;-65
2022/01/02 05:48:37;;;;;;;1.20;1.00;;;3.40;98.00;;;;;;5031508;28;20977;-66
2022/01/02 05:51:04;;;;;;;1.43;1.20;;;3.40;98.00;;;;;;5031399;28;20546;-66
2022/01/02 05:53:33;;;;;;;1.20;1.07;;;3.40;98.00;;;;;;5031286;28;20481;-65
2022/01/02 05:56:00;;;;;;;1.20;1.00;;;3.40;98.00;;;;;;5030984;28;20512;-66
2022/01/02 05:58:28;;;;;;;1.30;1.10;;;3.30;98.00;;;;;;5031354;28;20949;-65
2022/01/02 06:00:56;;;;;;;1.20;1.07;;;3.40;98.00;;;;;;5031425;28;20519;-66
2022/01/02 06:03:23;;;;;;;1.20;1.00;;;3.30;98.00;;;;;;5031179;28;20497;-67
2022/01/02 06:05:50;;;;;;;1.30;1.07;;;3.20;98.00;;;;;;5031317;28;20493;-66
2022/01/02 06:08:17;;;;;;;3.73;1.53;;;3.20;98.00;;;;;;5031047;28;20991;-65
2022/01/02 06:10:44;;;;;;;1.23;1.13;;;3.10;98.00;;;;;;5031020;28;20509;-66
2022/01/02 06:13:11;;;;;;;1.20;1.00;;;3.00;98.00;;;;;;5031210;28;20839;-65
2022/01/02 06:15:38;;;;;;;1.30;1.10;;;3.10;98.00;;;;;;5031133;28;20984;-66
2022/01/02 06:18:07;;;;;;;1.20;1.20;;;3.10;98.00;;;;;;5031099;28;20494;-66
2022/01/02 06:20:34;;;;;;;1.40;1.20;;;3.20;98.00;;;;;;5030958;28;20534;-66
2022/01/02 06:23:01;;;;;;;1.90;1.70;;;3.20;98.00;;;;;;5031108;28;20517;-66
2022/01/02 06:25:28;;;;;;;1.63;1.53;;;3.40;98.00;;;;;;5031025;28;20495;-66
2022/01/02 06:27:55;;;;;;;1.30;1.30;;;3.40;98.00;;;;;;5031022;28;20544;-66
2022/01/02 06:30:22;;;;;;;1.27;1.23;;;3.30;98.00;;;;;;5030985;28;20495;-65
2022/01/02 06:32:54;;;;;;;1.20;1.00;;;3.40;98.00;;;;;;5031142;28;20976;-66
2022/01/02 06:35:24;;;;;;;1.70;1.60;;;3.30;98.00;;;;;;5031081;28;20459;-66
2022/01/02 06:37:52;;;;;;;1.40;1.20;;;3.50;98.00;;;;;;5031233;28;20556;-66
2022/01/02 06:40:20;;;;;;;1.20;1.00;;;3.50;98.00;;;;;;5032437;28;20489;-66
2022/01/02 06:42:47;;;;;;;1.20;1.13;;;3.50;98.00;;;;;;5034965;28;20485;-66
2022/01/02 06:45:14;;;;;;;2.07;1.47;;;3.60;98.00;;;;;;5034968;28;20486;-65
2022/01/02 06:47:41;;;;;;;1.63;1.20;;;3.80;98.00;;;;;;5034835;28;21023;-66
2022/01/02 06:50:09;;;;;;;1.20;1.00;;;3.70;98.00;;;;;;5034976;28;20517;-65
2022/01/02 06:52:38;;;;;;;3.43;1.27;;;3.60;98.00;;;;;;5034863;28;20518;-66
2022/01/02 06:55:06;;;;;;;1.20;1.10;;;3.40;98.00;;;;;;5033771;28;20801;-66
2022/01/02 06:57:34;;;;;;;1.40;1.10;;;3.50;98.00;;;;;;5034874;28;20564;-65
2022/01/02 07:00:01;;;;;;;1.20;1.00;;;3.40;98.00;;;;;;5034611;28;20490;-67
2022/01/02 07:02:28;;;;;;;4.97;1.67;;;3.30;98.00;;;;;;5034423;28;20540;-66
2022/01/02 07:04:55;;;;;;;1.20;1.10;;;3.30;98.00;;;;;;5035015;28;20501;-66
2022/01/02 07:07:22;;;;;;;1.90;1.17;;;3.40;98.00;;;;;;5034327;28;20890;-66
2022/01/02 07:09:52;;;;;;;1.97;1.43;;;3.30;98.00;;;;;;5034842;28;20549;-66
2022/01/02 07:12:19;;;;;;;1.53;1.47;;;3.30;98.00;;;;;;5034566;28;20482;-66
2022/01/02 07:14:47;;;;;;;1.20;1.10;;;3.40;98.00;;;;;;5034485;28;20621;-66
2022/01/02 07:17:14;;;;;;;9.27;1.27;;;3.40;98.00;;;;;;5034366;28;20514;-66
2022/01/02 07:19:41;;;;;;;1.20;1.00;;;3.30;98.00;;;;;;5034223;28;20489;-67
2022/01/02 07:22:08;;;;;;;3.20;1.53;;;3.20;98.00;;;;;;5034076;28;20581;-66
2022/01/02 07:24:35;;;;;;;2.60;1.40;;;3.20;98.00;;;;;;5034275;28;20894;-65
2022/01/02 07:27:04;;;;;;;1.27;1.23;;;3.30;98.00;;;;;;5032713;28;20845;-66
2022/01/02 07:29:31;;;;;;;2.17;1.43;;;3.50;98.00;;;;;;5034115;28;20870;-65
2022/01/02 07:31:58;;;;;;;1.20;1.10;;;3.70;98.00;;;;;;5034135;28;20844;-65
2022/01/02 07:34:25;;;;;;;1.20;1.10;;;3.80;98.00;;;;;;5032695;28;20588;-65
2022/01/02 07:36:52;;;;;;;1.20;1.17;;;3.80;98.00;;;;;;5034045;28;20541;-67
2022/01/02 07:39:19;;;;;;;3.33;1.27;;;3.70;98.00;;;;;;5033735;28;20502;-65
2022/01/02 07:41:46;;;;;;;1.40;1.30;;;3.70;98.00;;;;;;5032635;28;20566;-66
2022/01/02 07:44:14;;;;;;;2.37;1.33;;;3.70;98.00;;;;;;5033817;28;20508;-65
2022/01/02 07:46:41;;;;;;;1.70;1.17;;;3.60;98.00;;;;;;5033723;28;20547;-66
2022/01/02 07:49:08;;;;;;;2.07;1.27;;;3.60;98.00;;;;;;5033896;28;20637;-66
2022/01/02 07:51:38;;;;;;;1.20;1.10;;;3.70;98.00;;;;;;5033426;28;20533;-67
2022/01/02 07:54:05;;;;;;;1.70;1.50;;;3.80;98.00;;;;;;5033698;28;20504;-66
2022/01/02 07:56:33;;;;;;;1.60;1.23;;;3.90;98.00;;;;;;5033889;28;20549;-66
2022/01/02 07:59:00;;;;;;;1.20;1.00;;;3.80;98.00;;;;;;5033582;28;20504;-66
2022/01/02 08:01:28;;;;;;;2.43;1.50;;;3.90;98.00;;;;;;5033725;28;20905;-68
2022/01/02 08:03:55;;;;;;;1.20;1.00;;;4.00;98.00;;;;;;5033993;28;20974;-66
2022/01/02 08:06:22;;;;;;;1.20;1.00;;;3.90;98.00;;;;;;5033611;28;20571;-66
2022/01/02 08:08:49;;;;;;;1.20;1.13;;;3.80;98.00;;;;;;5033415;28;20494;-66
2022/01/02 08:11:17;;;;;;;1.20;1.03;;;3.90;98.00;;;;;;5033579;28;20497;-66
2022/01/02 08:13:44;;;;;;;1.43;1.37;;;3.90;98.00;;;;;;5033195;28;20553;-66
2022/01/02 08:16:12;;;;;;;1.50;1.30;;;3.90;98.00;;;;;;5015743;28;20534;-66
2022/01/02 08:18:40;;;;;;;1.20;1.10;;;3.90;98.00;;;;;;5033099;28;20480;-66
2022/01/02 08:21:08;;;;;;;1.83;1.40;;;3.90;98.00;;;;;;5031841;28;20468;-67
2022/01/02 08:23:36;;;;;;;1.10;1.00;;;4.10;98.00;;;;;;5033025;28;20455;-67
2022/01/02 08:26:04;;;;;;;2.07;1.20;;;4.20;98.00;;;;;;5033079;28;20490;-66
2022/01/02 08:28:31;;;;;;;1.97;1.53;;;4.10;98.00;;;;;;5032999;28;20486;-66
2022/01/02 08:30:58;;;;;;;1.30;1.20;;;4.10;98.00;;;;;;5033213;28;20513;-65
2022/01/02 08:33:25;;;;;;;1.20;1.10;;;4.20;98.00;;;;;;5032844;28;20495;-66
2022/01/02 08:35:53;;;;;;;2.67;1.50;;;4.20;98.00;;;;;;5031769;28;20490;-66
2022/01/02 08:38:20;;;;;;;2.13;1.37;;;4.10;98.00;;;;;;5032718;28;20490;-66
2022/01/02 08:40:48;;;;;;;1.40;1.17;;;4.10;98.00;;;;;;5032650;28;20507;-66
2022/01/02 08:43:15;;;;;;;1.70;1.10;;;4.00;98.00;;;;;;5032735;28;20514;-67
2022/01/02 08:45:42;;;;;;;1.77;1.57;;;4.10;98.00;;;;;;5032664;28;20519;-66
2022/01/02 08:48:10;;;;;;;1.70;1.37;;;4.20;98.00;;;;;;5032574;28;20540;-65
2022/01/02 08:50:37;;;;;;;2.17;1.30;;;4.30;98.00;;;;;;5032398;28;20488;-66
2022/01/02 08:53:05;;;;;;;1.37;1.27;;;4.40;98.00;;;;;;5032461;28;20535;-66
2022/01/02 08:55:35;;;;;;;1.67;1.63;;;4.40;98.00;;;;;;5032356;28;20494;-67
2022/01/02 08:58:03;;;;;;;1.40;1.10;;;4.50;98.00;;;;;;5036733;28;20542;-67
2022/01/02 09:00:32;;;;;;;1.20;1.10;;;4.60;98.00;;;;;;5035416;28;20466;-67
2022/01/02 09:02:59;;;;;;;1.40;1.40;;;4.60;98.00;;;;;;5047224;28;20859;-67
2022/01/02 09:05:27;;;;;;;1.40;1.20;;;4.70;98.00;;;;;;5042333;28;20471;-66
2022/01/02 09:07:54;;;;;;;1.50;1.30;;;4.90;98.00;;;;;;5031053;28;20494;-67
2022/01/02 09:10:23;;;;;;;1.53;1.43;;;5.10;98.00;;;;;;5031262;28;20462;-67
2022/01/02 09:12:50;;;;;;;1.40;1.20;;;5.30;98.00;;;;;;5033205;28;21929;-66
2022/01/02 09:15:17;;;;;;;3.10;1.53;;;5.30;98.00;;;;;;5045529;28;21186;-66
2022/01/02 09:17:45;;;;;;;4.33;1.30;;;5.40;98.00;;;;;;5038379;28;20550;-68
2022/01/02 09:20:14;;;;;;;1.30;1.10;;;5.50;98.00;;;;;;5040178;28;20851;-70
2022/01/02 09:22:42;;;;;;;1.20;0.90;;;5.60;98.00;;;;;;5048852;28;20576;-67
2022/01/02 09:25:10;;;;;;;1.53;1.40;;;5.70;98.00;;;;;;5052075;28;20465;-67
2022/01/02 09:27:41;;;;;;;1.50;1.30;;;5.80;98.00;;;;;;5051986;28;20519;-66
2022/01/02 09:30:09;;;;;;;3.23;1.97;;;5.80;98.00;;;;;;5051869;28;20485;-67
2022/01/02 09:32:35;;;;;;;1.20;1.17;;;5.90;98.00;;;;;;5051759;28;20533;-67
2022/01/02 09:35:03;;;;;;;1.20;1.10;;;5.90;98.00;;;;;;5051790;28;20577;-67
2022/01/02 09:37:30;;;;;;;1.37;1.10;;;5.90;98.00;;;;;;5051669;28;20534;-67
2022/01/02 09:39:58;;;;;;;2.80;1.30;;;6.00;98.00;;;;;;5051249;28;20469;-67
2022/01/02 09:42:26;;;;;;;1.50;1.20;;;6.10;98.00;;;;;;5049987;28;20512;-67
2022/01/02 09:44:55;;;;;;;1.60;1.27;;;6.20;98.00;;;;;;5051397;28;20490;-67
2022/01/02 09:47:23;;;;;;;1.33;1.27;;;6.30;98.00;;;;;;5051313;28;20456;-67
2022/01/02 09:49:50;;;;;;;3.00;1.87;;;6.50;98.00;;;;;;5049994;28;20492;-68
2022/01/02 09:52:18;;;;;;;1.20;1.17;;;6.50;98.00;;;;;;5051342;28;20494;-67
2022/01/02 09:54:45;;;;;;;1.83;1.83;;;6.70;98.00;;;;;;5051199;28;20483;-68
2022/01/02 09:57:13;;;;;;;1.20;1.10;;;6.70;98.00;;;;;;5051296;28;20552;-67
2022/01/02 09:59:40;;;;;;;1.80;1.53;;;6.70;98.00;;;;;;5050936;28;20838;-68
2022/01/02 10:02:09;;;;;;;1.30;1.00;;;6.80;98.00;;;;;;5050988;28;20939;-67
2022/01/02 10:04:38;;;;;;;1.27;1.23;;;6.90;98.00;;;;;;5050816;28;20521;-67
2022/01/02 10:07:07;;;;;;;1.50;1.33;;;6.90;98.00;;;;;;5051264;28;20696;-68
2022/01/02 10:09:35;;;;;;;1.60;1.50;;;6.90;98.00;;;;;;5050966;28;20481;-67
2022/01/02 10:12:25;;;;;;;1.87;1.33;;;6.90;98.00;;;;;;5051064;28;21026;-67
2022/01/02 10:15:14;;;;;;;1.40;1.30;;;7.00;98.00;;;;;;5050868;28;20961;-68
2022/01/02 10:17:57;;;;;;;2.80;1.50;;;7.10;98.00;;;;;;5050961;28;20524;-68
2022/01/02 10:20:26;;;;;;;1.13;1.13;;;7.20;98.00;;;;;;5050726;28;20496;-67
2022/01/02 10:23:14;;;;;;;1.90;1.77;;;7.30;98.00;;;;;;5050826;28;20529;-68
2022/01/02 10:25:47;;;;;;;1.87;1.43;;;7.40;98.00;;;;;;5049046;28;20541;-68
2022/01/02 10:28:28;;;;;;;2.33;1.43;;;7.30;98.00;;;;;;5050879;28;20493;-68
2022/01/02 10:30:58;;;;;;;1.20;1.20;;;7.30;98.00;;;;;;5050583;28;20520;-68
2022/01/02 10:33:29;;;;;;;2.17;1.40;;;7.50;98.00;;;;;;5050754;28;20484;-67
2022/01/02 10:35:58;;;;;;;1.30;1.20;;;7.60;98.00;;;;;;5049400;28;20458;-68
2022/01/02 10:38:26;;;;;;;3.10;1.37;;;7.70;98.00;;;;;;5050676;28;20485;-68
2022/01/02 10:40:53;;;;;;;1.10;1.03;;;7.60;98.00;;;;;;5050537;28;20456;-67
2022/01/02 10:43:30;;;;;;;1.77;1.50;;;7.70;98.00;;;;;;5050889;28;20535;-67
2022/01/02 10:45:59;;;;;;;1.67;1.20;;;7.60;98.00;;;;;;5050849;28;20986;-68
2022/01/02 10:48:40;;;;;;;1.50;1.40;;;7.70;98.00;;;;;;5050741;28;20802;-68
2022/01/02 10:51:09;;;;;;;1.30;1.07;;;7.70;98.00;;;;;;5051112;28;20865;-68
2022/01/02 10:53:38;;;;;;;1.20;1.00;;;7.70;98.00;;;;;;5050601;28;21002;-68
2022/01/02 10:56:07;;;;;;;2.67;1.70;;;7.70;98.00;;;;;;5050702;28;20454;-68
2022/01/02 10:58:35;;;;;;;1.30;1.13;;;7.80;98.00;;;;;;5050536;28;20469;-68
2022/01/02 11:01:07;;;;;;;2.07;1.77;;;7.90;98.00;;;;;;5050667;28;20470;-68
2022/01/02 11:03:34;;;;;;;2.63;2.07;;;7.90;98.00;;;;;;5050331;28;20988;-68
2022/01/02 11:06:10;;;;;;;1.50;1.40;;;7.90;98.00;;;;;;5050366;28;20607;-68
2022/01/02 11:08:41;;;;;;;1.97;1.63;;;7.90;98.00;;;;;;5050322;28;20507;-68
2022/01/02 11:11:08;;;;;;;2.47;1.30;;;7.90;98.00;;;;;;5049291;28;20493;-67
2022/01/02 11:13:35;;;;;;;1.53;1.43;;;8.00;98.00;;;;;;5049179;28;20464;-67
2022/01/02 11:16:04;;;;;;;1.53;1.40;;;8.00;98.00;;;;;;5050397;28;20480;-67
2022/01/02 11:18:35;;;;;;;1.30;1.30;;;8.10;98.00;;;;;;5050385;28;20467;-67
2022/01/02 11:21:05;;;;;;;2.00;1.20;;;8.20;98.00;;;;;;5050335;28;20496;-67
2022/01/02 11:23:44;;;;;;;1.87;1.53;;;8.30;98.00;;;;;;5050082;28;20666;-67
2022/01/02 11:26:19;;;;;;;1.73;1.47;;;8.10;98.00;;;;;;5051546;28;21028;-67
2022/01/02 11:28:48;;;;;;;3.07;1.33;;;8.20;98.00;;;;;;5053787;28;20819;-68
2022/01/02 11:31:30;;;;;;;1.43;1.30;;;8.30;98.00;;;;;;5054070;28;20899;-67
2022/01/02 11:33:57;;;;;;;1.30;1.20;;;8.30;98.00;;;;;;5053751;28;20469;-67
2022/01/02 11:36:27;;;;;;;3.10;2.10;;;8.30;98.00;;;;;;5054023;28;20528;-67
2022/01/02 11:39:00;;;;;;;3.67;3.17;;;8.40;98.00;;;;;;5053595;28;20525;-67
2022/01/02 11:41:41;;;;;;;2.30;1.77;;;8.50;98.00;;;;;;5053860;28;20463;-67
2022/01/02 11:44:10;;;;;;;5.23;1.40;;;8.40;98.00;;;;;;5053674;28;21131;-67
2022/01/02 11:46:52;;;;;;;1.20;1.17;;;8.40;98.00;;;;;;5053680;28;20559;-67
2022/01/02 11:49:25;;;;;;;1.50;1.43;;;8.50;98.00;;;;;;5052470;28;20473;-67
2022/01/02 11:52:13;;;;;;;1.67;1.20;;;8.60;98.00;;;;;;5053579;28;20455;-67
2022/01/02 11:54:49;;;;;;;1.47;1.37;;;8.70;98.00;;;;;;5053537;28;20553;-68
2022/01/02 11:57:55;;;;;;;1.30;1.10;;;8.80;98.00;;;;;;5053588;28;20497;-67
2022/01/02 12:00:43;;;;;;;1.30;1.20;;;9.00;98.00;;;;;;5053428;28;20481;-67
2022/01/02 12:03:49;;;;;;;2.07;1.73;;;8.90;98.00;;;;;;5055297;28;20522;-67
2022/01/02 12:06:17;;;;;;;1.83;1.30;;;9.00;98.00;;;;;;5054098;28;20452;-68
2022/01/02 12:08:45;;;;;;;2.07;1.47;;;8.90;98.00;;;;;;5053511;28;20460;-68
2022/01/02 12:11:40;;;;;;;1.20;1.10;;;8.90;98.00;;;;;;5053491;28;20460;-68
2022/01/02 12:14:08;;;;;;;2.33;1.43;;;9.00;98.00;;;;;;5053551;28;20543;-68
2022/01/02 12:16:37;;;;;;;2.83;1.30;;;9.00;98.00;;;;;;5052379;28;20468;-68
2022/01/02 12:19:05;;;;;;;1.20;1.10;;;9.00;98.00;;;;;;5053413;28;20513;-67
2022/01/02 12:21:33;;;;;;;1.47;1.23;;;9.00;98.00;;;;;;5053274;28;20452;-68
2022/01/02 12:24:04;;;;;;;1.80;1.40;;;9.10;98.00;;;;;;5052748;28;20489;-68
2022/01/02 12:26:33;;;;;;;6.63;2.10;;;9.10;98.00;;;;;;5053554;28;20539;-67
2022/01/02 12:29:06;;;;;;;1.20;1.03;;;9.10;98.00;;;;;;5052941;28;20462;-68
2022/01/02 12:31:35;;;;;;;1.67;1.30;;;9.30;98.00;;;;;;5053221;28;20517;-68
2022/01/02 12:34:08;;;;;;;2.57;1.30;;;9.40;98.00;;;;;;5051514;28;20898;-68
2022/01/02 12:36:36;;;;;;;1.20;1.00;;;9.70;98.00;;;;;;5052639;28;20500;-68
2022/01/02 12:39:06;;;;;;;2.17;1.30;;;10.00;98.00;;;;;;5051626;28;20549;-68
2022/01/02 12:41:36;;;;;;;1.60;1.27;;;10.30;98.00;;;;;;5052781;28;21018;-68
2022/01/02 12:44:06;;;;;;;1.50;1.23;;;10.60;98.00;;;;;;5052689;28;20568;-68
2022/01/02 12:46:41;;;;;;;1.20;1.00;;;10.90;98.00;;;;;;5052604;28;20459;-68
2022/01/02 12:49:10;;;;;;;1.50;1.27;;;11.00;98.00;;;;;;5051387;28;20815;-68
2022/01/02 12:51:40;;;;;;;1.40;1.20;;;11.10;98.00;;;;;;5052697;28;20795;-68
2022/01/02 12:54:09;;;;;;;1.50;1.10;;;11.20;98.00;;;;;;5052611;28;21057;-68
2022/01/02 12:56:41;;;;;;;1.20;1.17;;;11.30;98.00;;;;;;5052429;28;20535;-68
2022/01/02 12:59:25;;;;;;;1.30;1.17;;;11.50;98.00;;;;;;5052367;28;20502;-68
2022/01/02 13:01:56;;;;;;;1.50;1.10;;;11.70;98.00;;;;;;5052345;28;20454;-69
2022/01/02 13:04:25;;;;;;;1.30;1.10;;;12.00;98.00;;;;;;5052175;28;20506;-68
2022/01/02 13:06:53;;;;;;;2.30;1.63;;;12.10;98.00;;;;;;5051935;28;20461;-68
2022/01/02 13:09:33;;;;;;;1.67;1.50;;;12.50;98.00;;;;;;5052132;28;21011;-69
2022/01/02 13:12:03;;;;;;;1.93;1.30;;;12.90;98.00;;;;;;5052139;28;20489;-68
2022/01/02 13:14:48;;;;;;;1.30;1.30;;;13.30;98.00;;;;;;5052061;28;20528;-68